sensor_id;sensor_type;location;lat;lon;timestamp;P1;durP1;ratioP1;P2;durP2;ratioP2
13331;SDS011;6735;51.456;12.626;2023-06-10T00:01:32;5.60;;;5.00;;
13331;SDS011;6735;51.456;12.626;2023-06-10T00:04:01;6.27;;;5.00;;
13331;SDS011;6735;51.456;12.626;2023-06-10T00:06:27;5.60;;;4.93;;
13331;SDS011;6735;51.456;12.626;2023-06-10T00:08:53;7.50;;;5.43;;
13331;SDS011;6735;51.456;12.626;2023-06-10T00:11:19;9.03;;;5.40;;
13331;SDS011;6735;51.456;12.626;2023-06-10T00:13:46;7.77;;;5.20;;
13331;SDS011;6735;51.456;12.626;2023-06-10T00:16:12;9.50;;;5.33;;
13331;SDS011;6735;51.456;12.626;2023-06-10T00:18:37;9.43;;;5.80;;
13331;SDS011;6735;51.456;12.626;2023-06-10T00:21:03;9.27;;;5.10;;
13331;SDS011;6735;51.456;12.626;2023-06-10T00:23:30;8.77;;;4.87;;
13331;SDS011;6735;51.456;12.626;2023-06-10T00:25:57;8.20;;;4.90;;
13331;SDS011;6735;51.456;12.626;2023-06-10T00:28:24;8.80;;;5.07;;
13331;SDS011;6735;51.456;12.626;2023-06-10T00:30:50;6.40;;;4.80;;
13331;SDS011;6735;51.456;12.626;2023-06-10T00:33:15;6.07;;;5.10;;
13331;SDS011;6735;51.456;12.626;2023-06-10T00:35:41;7.33;;;5.63;;
13331;SDS011;6735;51.456;12.626;2023-06-10T00:38:06;6.07;;;4.90;;
13331;SDS011;6735;51.456;12.626;2023-06-10T00:40:33;8.53;;;5.47;;
13331;SDS011;6735;51.456;12.626;2023-06-10T00:43:04;7.23;;;5.23;;
13331;SDS011;6735;51.456;12.626;2023-06-10T00:45:29;8.83;;;6.10;;
13331;SDS011;6735;51.456;12.626;2023-06-10T00:47:55;8.23;;;5.93;;
13331;SDS011;6735;51.456;12.626;2023-06-10T00:50:21;8.27;;;5.63;;
13331;SDS011;6735;51.456;12.626;2023-06-10T00:52:46;7.87;;;5.77;;
13331;SDS011;6735;51.456;12.626;2023-06-10T00:55:13;8.87;;;6.00;;
13331;SDS011;6735;51.456;12.626;2023-06-10T00:57:41;9.57;;;6.37;;
13331;SDS011;6735;51.456;12.626;2023-06-10T01:00:09;8.20;;;6.00;;
13331;SDS011;6735;51.456;12.626;2023-06-10T01:02:35;7.43;;;5.83;;
13331;SDS011;6735;51.456;12.626;2023-06-10T01:05:01;8.00;;;6.40;;
13331;SDS011;6735;51.456;12.626;2023-06-10T01:10:05;9.03;;;6.13;;
13331;SDS011;6735;51.456;12.626;2023-06-10T01:12:43;8.13;;;5.93;;
13331;SDS011;6735;51.456;12.626;2023-06-10T01:15:15;9.13;;;6.00;;
13331;SDS011;6735;51.456;12.626;2023-06-10T01:18:01;10.27;;;6.17;;
13331;SDS011;6735;51.456;12.626;2023-06-10T01:20:28;10.70;;;6.50;;
13331;SDS011;6735;51.456;12.626;2023-06-10T01:23:01;9.67;;;6.03;;
13331;SDS011;6735;51.456;12.626;2023-06-10T01:25:28;12.43;;;6.27;;
13331;SDS011;6735;51.456;12.626;2023-06-10T01:28:07;13.00;;;6.27;;
13331;SDS011;6735;51.456;12.626;2023-06-10T01:30:40;9.67;;;6.53;;
13331;SDS011;6735;51.456;12.626;2023-06-10T01:33:26;8.60;;;6.50;;
13331;SDS011;6735;51.456;12.626;2023-06-10T01:35:53;6.73;;;5.63;;
13331;SDS011;6735;51.456;12.626;2023-06-10T01:38:19;8.80;;;5.70;;
13331;SDS011;6735;51.456;12.626;2023-06-10T01:40:46;8.73;;;6.20;;
13331;SDS011;6735;51.456;12.626;2023-06-10T01:43:14;7.43;;;5.80;;
13331;SDS011;6735;51.456;12.626;2023-06-10T01:45:39;8.27;;;6.03;;
13331;SDS011;6735;51.456;12.626;2023-06-10T01:48:05;8.00;;;6.23;;
13331;SDS011;6735;51.456;12.626;2023-06-10T01:50:30;10.13;;;6.40;;
13331;SDS011;6735;51.456;12.626;2023-06-10T01:52:57;8.87;;;5.90;;
13331;SDS011;6735;51.456;12.626;2023-06-10T01:55:22;9.70;;;6.57;;
13331;SDS011;6735;51.456;12.626;2023-06-10T01:57:48;8.73;;;6.13;;
13331;SDS011;6735;51.456;12.626;2023-06-10T02:00:14;7.73;;;6.43;;
13331;SDS011;6735;51.456;12.626;2023-06-10T02:02:40;9.70;;;6.63;;
13331;SDS011;6735;51.456;12.626;2023-06-10T02:05:06;7.80;;;6.90;;
13331;SDS011;6735;51.456;12.626;2023-06-10T02:07:31;9.43;;;6.63;;
13331;SDS011;6735;51.456;12.626;2023-06-10T02:09:57;9.57;;;6.97;;
13331;SDS011;6735;51.456;12.626;2023-06-10T02:12:22;11.00;;;7.10;;
13331;SDS011;6735;51.456;12.626;2023-06-10T02:14:48;8.07;;;6.77;;
13331;SDS011;6735;51.456;12.626;2023-06-10T02:17:13;8.93;;;6.93;;
13331;SDS011;6735;51.456;12.626;2023-06-10T02:19:39;9.80;;;7.30;;
13331;SDS011;6735;51.456;12.626;2023-06-10T02:22:07;10.03;;;7.30;;
13331;SDS011;6735;51.456;12.626;2023-06-10T02:24:33;13.80;;;7.60;;
13331;SDS011;6735;51.456;12.626;2023-06-10T02:27:00;12.03;;;7.57;;
13331;SDS011;6735;51.456;12.626;2023-06-10T02:29:27;9.40;;;7.70;;
13331;SDS011;6735;51.456;12.626;2023-06-10T02:31:52;11.47;;;7.80;;
13331;SDS011;6735;51.456;12.626;2023-06-10T02:34:18;12.83;;;7.93;;
13331;SDS011;6735;51.456;12.626;2023-06-10T02:36:43;9.77;;;8.00;;
13331;SDS011;6735;51.456;12.626;2023-06-10T02:39:09;10.43;;;8.30;;
13331;SDS011;6735;51.456;12.626;2023-06-10T02:41:34;11.83;;;8.77;;
13331;SDS011;6735;51.456;12.626;2023-06-10T02:44:00;11.50;;;8.07;;
13331;SDS011;6735;51.456;12.626;2023-06-10T02:46:26;8.40;;;7.60;;
13331;SDS011;6735;51.456;12.626;2023-06-10T02:48:53;10.87;;;8.07;;
13331;SDS011;6735;51.456;12.626;2023-06-10T02:51:19;11.77;;;8.37;;
13331;SDS011;6735;51.456;12.626;2023-06-10T02:53:45;10.87;;;7.73;;
13331;SDS011;6735;51.456;12.626;2023-06-10T02:56:11;9.90;;;8.43;;
13331;SDS011;6735;51.456;12.626;2023-06-10T02:58:37;9.70;;;8.70;;
13331;SDS011;6735;51.456;12.626;2023-06-10T03:01:03;10.57;;;8.20;;
13331;SDS011;6735;51.456;12.626;2023-06-10T03:03:28;8.93;;;8.03;;
13331;SDS011;6735;51.456;12.626;2023-06-10T03:05:55;10.17;;;7.93;;
13331;SDS011;6735;51.456;12.626;2023-06-10T03:08:21;11.60;;;8.73;;
13331;SDS011;6735;51.456;12.626;2023-06-10T03:10:47;11.30;;;8.60;;
13331;SDS011;6735;51.456;12.626;2023-06-10T03:13:12;11.97;;;8.40;;
13331;SDS011;6735;51.456;12.626;2023-06-10T03:15:39;10.57;;;8.77;;
13331;SDS011;6735;51.456;12.626;2023-06-10T03:18:05;14.80;;;9.03;;
13331;SDS011;6735;51.456;12.626;2023-06-10T03:20:32;10.67;;;8.80;;
13331;SDS011;6735;51.456;12.626;2023-06-10T03:23:01;12.40;;;9.03;;
13331;SDS011;6735;51.456;12.626;2023-06-10T03:25:27;11.90;;;8.90;;
13331;SDS011;6735;51.456;12.626;2023-06-10T03:27:53;13.23;;;9.00;;
13331;SDS011;6735;51.456;12.626;2023-06-10T03:30:19;14.57;;;9.73;;
13331;SDS011;6735;51.456;12.626;2023-06-10T03:32:44;11.37;;;9.43;;
13331;SDS011;6735;51.456;12.626;2023-06-10T03:35:10;11.90;;;9.73;;
13331;SDS011;6735;51.456;12.626;2023-06-10T03:37:36;12.43;;;9.57;;
13331;SDS011;6735;51.456;12.626;2023-06-10T03:40:02;11.03;;;9.57;;
13331;SDS011;6735;51.456;12.626;2023-06-10T03:42:28;16.13;;;10.17;;
13331;SDS011;6735;51.456;12.626;2023-06-10T03:44:54;14.33;;;10.40;;
13331;SDS011;6735;51.456;12.626;2023-06-10T03:47:20;13.87;;;9.63;;
13331;SDS011;6735;51.456;12.626;2023-06-10T03:49:46;13.37;;;9.90;;
13331;SDS011;6735;51.456;12.626;2023-06-10T03:52:11;12.47;;;9.87;;
13331;SDS011;6735;51.456;12.626;2023-06-10T03:54:36;14.33;;;10.33;;
13331;SDS011;6735;51.456;12.626;2023-06-10T03:57:02;12.33;;;10.10;;
13331;SDS011;6735;51.456;12.626;2023-06-10T03:59:28;15.60;;;10.70;;
13331;SDS011;6735;51.456;12.626;2023-06-10T04:01:53;13.67;;;10.80;;
13331;SDS011;6735;51.456;12.626;2023-06-10T04:04:19;12.77;;;10.03;;
13331;SDS011;6735;51.456;12.626;2023-06-10T04:06:44;11.90;;;10.07;;
13331;SDS011;6735;51.456;12.626;2023-06-10T04:09:10;13.73;;;10.13;;
13331;SDS011;6735;51.456;12.626;2023-06-10T04:11:36;11.73;;;10.10;;
13331;SDS011;6735;51.456;12.626;2023-06-10T04:14:02;14.50;;;10.20;;
13331;SDS011;6735;51.456;12.626;2023-06-10T04:16:27;12.27;;;10.17;;
13331;SDS011;6735;51.456;12.626;2023-06-10T04:18:53;15.57;;;10.40;;
13331;SDS011;6735;51.456;12.626;2023-06-10T04:21:18;12.83;;;9.57;;
13331;SDS011;6735;51.456;12.626;2023-06-10T04:23:44;14.37;;;10.00;;
13331;SDS011;6735;51.456;12.626;2023-06-10T04:26:09;13.27;;;9.87;;
13331;SDS011;6735;51.456;12.626;2023-06-10T04:28:37;13.50;;;10.73;;
13331;SDS011;6735;51.456;12.626;2023-06-10T04:31:02;14.33;;;10.23;;
13331;SDS011;6735;51.456;12.626;2023-06-10T04:33:29;15.93;;;9.97;;
13331;SDS011;6735;51.456;12.626;2023-06-10T04:35:57;13.30;;;10.40;;
13331;SDS011;6735;51.456;12.626;2023-06-10T04:38:23;12.93;;;10.27;;
13331;SDS011;6735;51.456;12.626;2023-06-10T04:40:48;14.67;;;10.23;;
13331;SDS011;6735;51.456;12.626;2023-06-10T04:43:14;12.10;;;9.97;;
13331;SDS011;6735;51.456;12.626;2023-06-10T04:45:40;11.30;;;10.13;;
13331;SDS011;6735;51.456;12.626;2023-06-10T04:48:09;16.80;;;10.63;;
13331;SDS011;6735;51.456;12.626;2023-06-10T04:50:35;14.00;;;10.13;;
13331;SDS011;6735;51.456;12.626;2023-06-10T04:53:01;10.77;;;9.53;;
13331;SDS011;6735;51.456;12.626;2023-06-10T04:55:27;11.43;;;9.30;;
13331;SDS011;6735;51.456;12.626;2023-06-10T04:57:52;11.47;;;9.13;;
13331;SDS011;6735;51.456;12.626;2023-06-10T05:00:18;10.67;;;8.57;;
13331;SDS011;6735;51.456;12.626;2023-06-10T05:02:43;11.33;;;8.33;;
13331;SDS011;6735;51.456;12.626;2023-06-10T05:05:09;12.17;;;8.20;;
13331;SDS011;6735;51.456;12.626;2023-06-10T05:07:35;11.33;;;8.80;;
13331;SDS011;6735;51.456;12.626;2023-06-10T05:10:01;9.60;;;8.20;;
13331;SDS011;6735;51.456;12.626;2023-06-10T05:12:27;12.43;;;7.90;;
13331;SDS011;6735;51.456;12.626;2023-06-10T05:14:53;10.63;;;7.90;;
13331;SDS011;6735;51.456;12.626;2023-06-10T05:17:18;10.23;;;7.87;;
13331;SDS011;6735;51.456;12.626;2023-06-10T05:19:44;8.97;;;7.93;;
13331;SDS011;6735;51.456;12.626;2023-06-10T05:22:09;8.77;;;7.87;;
13331;SDS011;6735;51.456;12.626;2023-06-10T05:24:35;13.10;;;8.13;;
13331;SDS011;6735;51.456;12.626;2023-06-10T05:27:00;9.10;;;7.20;;
13331;SDS011;6735;51.456;12.626;2023-06-10T05:29:26;11.67;;;8.30;;
13331;SDS011;6735;51.456;12.626;2023-06-10T05:31:51;8.70;;;7.80;;
13331;SDS011;6735;51.456;12.626;2023-06-10T05:34:17;12.13;;;8.03;;
13331;SDS011;6735;51.456;12.626;2023-06-10T05:36:43;9.33;;;8.00;;
13331;SDS011;6735;51.456;12.626;2023-06-10T05:39:09;10.10;;;7.73;;
13331;SDS011;6735;51.456;12.626;2023-06-10T05:41:35;8.77;;;7.87;;
13331;SDS011;6735;51.456;12.626;2023-06-10T05:44:00;10.53;;;8.00;;
13331;SDS011;6735;51.456;12.626;2023-06-10T05:46:26;13.07;;;7.70;;
13331;SDS011;6735;51.456;12.626;2023-06-10T05:48:51;9.70;;;7.20;;
13331;SDS011;6735;51.456;12.626;2023-06-10T05:51:16;8.50;;;7.37;;
13331;SDS011;6735;51.456;12.626;2023-06-10T05:53:42;10.00;;;8.00;;
13331;SDS011;6735;51.456;12.626;2023-06-10T05:56:08;9.67;;;7.70;;
13331;SDS011;6735;51.456;12.626;2023-06-10T05:58:33;8.63;;;7.37;;
13331;SDS011;6735;51.456;12.626;2023-06-10T06:00:59;9.90;;;8.10;;
13331;SDS011;6735;51.456;12.626;2023-06-10T06:03:25;8.43;;;7.60;;
13331;SDS011;6735;51.456;12.626;2023-06-10T06:05:50;9.77;;;8.13;;
13331;SDS011;6735;51.456;12.626;2023-06-10T06:08:16;9.33;;;7.57;;
13331;SDS011;6735;51.456;12.626;2023-06-10T06:10:44;11.10;;;8.20;;
13331;SDS011;6735;51.456;12.626;2023-06-10T06:13:09;10.63;;;8.00;;
13331;SDS011;6735;51.456;12.626;2023-06-10T06:15:35;10.20;;;8.13;;
13331;SDS011;6735;51.456;12.626;2023-06-10T06:18:00;10.17;;;8.30;;
13331;SDS011;6735;51.456;12.626;2023-06-10T06:20:26;8.63;;;7.53;;
13331;SDS011;6735;51.456;12.626;2023-06-10T06:22:51;13.20;;;8.07;;
13331;SDS011;6735;51.456;12.626;2023-06-10T06:25:17;8.83;;;7.93;;
13331;SDS011;6735;51.456;12.626;2023-06-10T06:27:42;8.93;;;8.03;;
13331;SDS011;6735;51.456;12.626;2023-06-10T06:30:08;13.03;;;8.67;;
13331;SDS011;6735;51.456;12.626;2023-06-10T06:32:34;12.67;;;8.40;;
13331;SDS011;6735;51.456;12.626;2023-06-10T06:34:59;11.97;;;8.23;;
13331;SDS011;6735;51.456;12.626;2023-06-10T06:37:25;11.67;;;8.43;;
13331;SDS011;6735;51.456;12.626;2023-06-10T06:39:51;10.03;;;8.17;;
13331;SDS011;6735;51.456;12.626;2023-06-10T06:42:17;10.33;;;8.60;;
13331;SDS011;6735;51.456;12.626;2023-06-10T06:44:42;10.67;;;8.73;;
13331;SDS011;6735;51.456;12.626;2023-06-10T06:47:08;11.33;;;8.63;;
13331;SDS011;6735;51.456;12.626;2023-06-10T06:49:34;10.83;;;8.30;;
13331;SDS011;6735;51.456;12.626;2023-06-10T06:51:59;9.60;;;8.40;;
13331;SDS011;6735;51.456;12.626;2023-06-10T06:54:25;9.40;;;8.50;;
13331;SDS011;6735;51.456;12.626;2023-06-10T06:56:50;10.30;;;8.70;;
13331;SDS011;6735;51.456;12.626;2023-06-10T06:59:16;9.20;;;8.20;;
13331;SDS011;6735;51.456;12.626;2023-06-10T07:01:44;10.80;;;8.77;;
13331;SDS011;6735;51.456;12.626;2023-06-10T07:04:09;10.70;;;8.20;;
13331;SDS011;6735;51.456;12.626;2023-06-10T07:06:35;9.23;;;8.33;;
13331;SDS011;6735;51.456;12.626;2023-06-10T07:09:01;8.90;;;8.00;;
13331;SDS011;6735;51.456;12.626;2023-06-10T07:11:26;10.80;;;8.37;;
13331;SDS011;6735;51.456;12.626;2023-06-10T07:13:52;13.03;;;8.80;;
13331;SDS011;6735;51.456;12.626;2023-06-10T07:16:17;8.80;;;7.90;;
13331;SDS011;6735;51.456;12.626;2023-06-10T07:18:45;10.33;;;8.53;;
13331;SDS011;6735;51.456;12.626;2023-06-10T07:21:11;11.70;;;9.03;;
13331;SDS011;6735;51.456;12.626;2023-06-10T07:23:36;9.10;;;8.20;;
13331;SDS011;6735;51.456;12.626;2023-06-10T07:26:02;9.37;;;8.27;;
13331;SDS011;6735;51.456;12.626;2023-06-10T07:28:27;11.07;;;8.60;;
13331;SDS011;6735;51.456;12.626;2023-06-10T07:30:53;9.57;;;8.17;;
13331;SDS011;6735;51.456;12.626;2023-06-10T07:33:18;10.60;;;8.53;;
13331;SDS011;6735;51.456;12.626;2023-06-10T07:35:44;9.47;;;8.40;;
13331;SDS011;6735;51.456;12.626;2023-06-10T07:38:09;9.33;;;8.10;;
13331;SDS011;6735;51.456;12.626;2023-06-10T07:40:35;9.90;;;8.40;;
13331;SDS011;6735;51.456;12.626;2023-06-10T07:43:00;9.60;;;8.30;;
13331;SDS011;6735;51.456;12.626;2023-06-10T07:45:26;9.03;;;8.20;;
13331;SDS011;6735;51.456;12.626;2023-06-10T07:47:51;9.90;;;8.70;;
13331;SDS011;6735;51.456;12.626;2023-06-10T07:50:17;8.93;;;8.13;;
13331;SDS011;6735;51.456;12.626;2023-06-10T07:52:42;9.43;;;8.50;;
13331;SDS011;6735;51.456;12.626;2023-06-10T07:55:08;10.53;;;8.30;;
13331;SDS011;6735;51.456;12.626;2023-06-10T07:57:34;10.47;;;8.83;;
13331;SDS011;6735;51.456;12.626;2023-06-10T08:00:01;10.63;;;8.83;;
13331;SDS011;6735;51.456;12.626;2023-06-10T08:02:29;9.90;;;8.50;;
13331;SDS011;6735;51.456;12.626;2023-06-10T08:04:54;10.73;;;8.40;;
13331;SDS011;6735;51.456;12.626;2023-06-10T08:07:20;9.57;;;8.63;;
13331;SDS011;6735;51.456;12.626;2023-06-10T08:09:47;9.13;;;8.20;;
13331;SDS011;6735;51.456;12.626;2023-06-10T08:12:12;9.20;;;8.30;;
13331;SDS011;6735;51.456;12.626;2023-06-10T08:14:38;9.13;;;8.20;;
13331;SDS011;6735;51.456;12.626;2023-06-10T08:17:04;8.70;;;7.83;;
13331;SDS011;6735;51.456;12.626;2023-06-10T08:19:30;10.00;;;9.00;;
13331;SDS011;6735;51.456;12.626;2023-06-10T08:21:56;8.77;;;7.80;;
13331;SDS011;6735;51.456;12.626;2023-06-10T08:24:21;10.70;;;9.60;;
13331;SDS011;6735;51.456;12.626;2023-06-10T08:26:47;9.53;;;8.23;;
13331;SDS011;6735;51.456;12.626;2023-06-10T08:29:13;10.87;;;8.20;;
13331;SDS011;6735;51.456;12.626;2023-06-10T08:31:42;8.73;;;7.93;;
13331;SDS011;6735;51.456;12.626;2023-06-10T08:34:08;10.17;;;8.70;;
13331;SDS011;6735;51.456;12.626;2023-06-10T08:36:34;8.80;;;8.00;;
13331;SDS011;6735;51.456;12.626;2023-06-10T08:39:00;8.93;;;8.13;;
13331;SDS011;6735;51.456;12.626;2023-06-10T08:41:26;13.00;;;8.40;;
13331;SDS011;6735;51.456;12.626;2023-06-10T08:44:03;8.73;;;7.90;;
13331;SDS011;6735;51.456;12.626;2023-06-10T08:46:33;8.80;;;7.93;;
13331;SDS011;6735;51.456;12.626;2023-06-10T08:49:02;9.67;;;8.20;;
13331;SDS011;6735;51.456;12.626;2023-06-10T08:51:30;9.50;;;8.60;;
13331;SDS011;6735;51.456;12.626;2023-06-10T08:54:01;10.47;;;9.07;;
13331;SDS011;6735;51.456;12.626;2023-06-10T08:56:30;9.17;;;8.27;;
13331;SDS011;6735;51.456;12.626;2023-06-10T08:58:58;12.03;;;8.47;;
13331;SDS011;6735;51.456;12.626;2023-06-10T09:01:24;9.50;;;8.50;;
13331;SDS011;6735;51.456;12.626;2023-06-10T09:03:51;9.63;;;7.70;;
13331;SDS011;6735;51.456;12.626;2023-06-10T09:06:17;9.97;;;8.23;;
13331;SDS011;6735;51.456;12.626;2023-06-10T09:08:43;9.40;;;8.50;;
13331;SDS011;6735;51.456;12.626;2023-06-10T09:11:09;9.83;;;8.13;;
13331;SDS011;6735;51.456;12.626;2023-06-10T09:13:34;9.50;;;7.93;;
13331;SDS011;6735;51.456;12.626;2023-06-10T09:16:00;8.87;;;7.90;;
13331;SDS011;6735;51.456;12.626;2023-06-10T09:18:26;8.63;;;7.70;;
13331;SDS011;6735;51.456;12.626;2023-06-10T09:20:52;9.37;;;8.10;;
13331;SDS011;6735;51.456;12.626;2023-06-10T09:23:18;9.40;;;7.90;;
13331;SDS011;6735;51.456;12.626;2023-06-10T09:25:44;9.50;;;7.93;;
13331;SDS011;6735;51.456;12.626;2023-06-10T09:28:13;12.03;;;8.20;;
13331;SDS011;6735;51.456;12.626;2023-06-10T09:30:39;9.27;;;8.20;;
13331;SDS011;6735;51.456;12.626;2023-06-10T09:33:12;9.57;;;8.57;;
13331;SDS011;6735;51.456;12.626;2023-06-10T09:35:47;9.00;;;8.10;;
13331;SDS011;6735;51.456;12.626;2023-06-10T09:38:14;8.23;;;7.53;;
13331;SDS011;6735;51.456;12.626;2023-06-10T09:40:50;9.02;;;8.18;;
13331;SDS011;6735;51.456;12.626;2023-06-10T09:43:16;9.27;;;8.37;;
13331;SDS011;6735;51.456;12.626;2023-06-10T09:45:42;12.83;;;8.67;;
13331;SDS011;6735;51.456;12.626;2023-06-10T09:48:08;9.52;;;8.52;;
13331;SDS011;6735;51.456;12.626;2023-06-10T09:50:33;9.60;;;8.60;;
13331;SDS011;6735;51.456;12.626;2023-06-10T09:53:02;9.63;;;8.82;;
13331;SDS011;6735;51.456;12.626;2023-06-10T09:55:32;9.43;;;8.52;;
13331;SDS011;6735;51.456;12.626;2023-06-10T09:57:58;9.65;;;8.70;;
13331;SDS011;6735;51.456;12.626;2023-06-10T10:00:24;9.80;;;8.90;;
13331;SDS011;6735;51.456;12.626;2023-06-10T10:02:51;9.45;;;8.65;;
13331;SDS011;6735;51.456;12.626;2023-06-10T10:05:19;9.40;;;8.60;;
13331;SDS011;6735;51.456;12.626;2023-06-10T10:07:46;8.85;;;8.10;;
13331;SDS011;6735;51.456;12.626;2023-06-10T10:10:13;9.68;;;8.77;;
13331;SDS011;6735;51.456;12.626;2023-06-10T10:12:40;9.63;;;8.73;;
13331;SDS011;6735;51.456;12.626;2023-06-10T10:15:07;8.50;;;7.90;;
13331;SDS011;6735;51.456;12.626;2023-06-10T10:17:37;9.15;;;8.25;;
13331;SDS011;6735;51.456;12.626;2023-06-10T10:20:10;9.15;;;8.38;;
13331;SDS011;6735;51.456;12.626;2023-06-10T10:22:39;8.77;;;8.07;;
13331;SDS011;6735;51.456;12.626;2023-06-10T10:25:09;9.95;;;7.55;;
13331;SDS011;6735;51.456;12.626;2023-06-10T10:27:41;8.75;;;8.05;;
13331;SDS011;6735;51.456;12.626;2023-06-10T10:30:11;8.80;;;7.90;;
13331;SDS011;6735;51.456;12.626;2023-06-10T10:32:38;10.07;;;8.63;;
13331;SDS011;6735;51.456;12.626;2023-06-10T10:35:12;8.65;;;7.75;;
13331;SDS011;6735;51.456;12.626;2023-06-10T10:37:43;8.90;;;8.07;;
13331;SDS011;6735;51.456;12.626;2023-06-10T10:40:08;10.73;;;8.60;;
13331;SDS011;6735;51.456;12.626;2023-06-10T10:42:36;9.48;;;7.93;;
13331;SDS011;6735;51.456;12.626;2023-06-10T10:45:03;10.20;;;8.52;;
13331;SDS011;6735;51.456;12.626;2023-06-10T10:47:29;9.00;;;8.20;;
13331;SDS011;6735;51.456;12.626;2023-06-10T10:49:56;9.07;;;8.20;;
13331;SDS011;6735;51.456;12.626;2023-06-10T10:52:25;9.90;;;8.85;;
13331;SDS011;6735;51.456;12.626;2023-06-10T10:55:12;8.60;;;7.80;;
13331;SDS011;6735;51.456;12.626;2023-06-10T10:57:38;9.73;;;8.83;;
13331;SDS011;6735;51.456;12.626;2023-06-10T11:00:04;8.77;;;7.93;;
13331;SDS011;6735;51.456;12.626;2023-06-10T11:02:40;11.23;;;8.43;;
13331;SDS011;6735;51.456;12.626;2023-06-10T11:05:08;9.27;;;7.90;;
13331;SDS011;6735;51.456;12.626;2023-06-10T11:07:55;8.35;;;7.55;;
13331;SDS011;6735;51.456;12.626;2023-06-10T11:10:30;8.73;;;7.93;;
13331;SDS011;6735;51.456;12.626;2023-06-10T11:13:00;8.93;;;7.97;;
13331;SDS011;6735;51.456;12.626;2023-06-10T11:15:32;10.73;;;8.00;;
13331;SDS011;6735;51.456;12.626;2023-06-10T11:18:07;8.32;;;7.53;;
13331;SDS011;6735;51.456;12.626;2023-06-10T11:31:18;7.68;;;6.90;;
13331;SDS011;6735;51.456;12.626;2023-06-10T11:33:45;7.00;;;6.40;;
13331;SDS011;6735;51.456;12.626;2023-06-10T11:36:12;6.28;;;5.85;;
13331;SDS011;6735;51.456;12.626;2023-06-10T11:38:38;7.78;;;6.57;;
13331;SDS011;6735;51.456;12.626;2023-06-10T11:41:05;6.72;;;6.22;;
13331;SDS011;6735;51.456;12.626;2023-06-10T11:43:31;6.75;;;6.05;;
13331;SDS011;6735;51.456;12.626;2023-06-10T11:45:57;7.32;;;6.57;;
13331;SDS011;6735;51.456;12.626;2023-06-10T11:48:22;6.60;;;6.00;;
13331;SDS011;6735;51.456;12.626;2023-06-10T11:50:48;6.68;;;6.18;;
13331;SDS011;6735;51.456;12.626;2023-06-10T11:53:13;7.25;;;6.10;;
13331;SDS011;6735;51.456;12.626;2023-06-10T11:55:40;6.75;;;5.90;;
13331;SDS011;6735;51.456;12.626;2023-06-10T11:58:12;6.80;;;6.28;;
13331;SDS011;6735;51.456;12.626;2023-06-10T12:00:47;7.07;;;6.38;;
13331;SDS011;6735;51.456;12.626;2023-06-10T12:03:18;6.90;;;6.30;;
13331;SDS011;6735;51.456;12.626;2023-06-10T12:05:57;7.97;;;5.10;;
13331;SDS011;6735;51.456;12.626;2023-06-10T12:08:23;5.15;;;4.72;;
13331;SDS011;6735;51.456;12.626;2023-06-10T12:10:49;6.22;;;4.65;;
13331;SDS011;6735;51.456;12.626;2023-06-10T12:13:15;6.17;;;5.00;;
13331;SDS011;6735;51.456;12.626;2023-06-10T12:15:42;4.80;;;4.40;;
13331;SDS011;6735;51.456;12.626;2023-06-10T12:18:08;5.57;;;5.03;;
13331;SDS011;6735;51.456;12.626;2023-06-10T12:20:41;6.47;;;5.50;;
13331;SDS011;6735;51.456;12.626;2023-06-10T12:23:10;5.33;;;4.93;;
13331;SDS011;6735;51.456;12.626;2023-06-10T12:25:37;5.90;;;5.40;;
13331;SDS011;6735;51.456;12.626;2023-06-10T12:28:03;6.37;;;5.80;;
13331;SDS011;6735;51.456;12.626;2023-06-10T12:30:29;9.03;;;6.00;;
13331;SDS011;6735;51.456;12.626;2023-06-10T12:32:55;6.93;;;6.17;;
13331;SDS011;6735;51.456;12.626;2023-06-10T12:35:22;6.40;;;6.00;;
13331;SDS011;6735;51.456;12.626;2023-06-10T12:38:01;6.75;;;5.90;;
13331;SDS011;6735;51.456;12.626;2023-06-10T12:40:30;6.50;;;6.00;;
13331;SDS011;6735;51.456;12.626;2023-06-10T12:43:00;8.20;;;6.10;;
13331;SDS011;6735;51.456;12.626;2023-06-10T12:45:27;7.13;;;6.43;;
13331;SDS011;6735;51.456;12.626;2023-06-10T12:48:03;6.70;;;6.20;;
13331;SDS011;6735;51.456;12.626;2023-06-10T12:50:36;7.30;;;6.20;;
13331;SDS011;6735;51.456;12.626;2023-06-10T12:53:03;7.32;;;6.63;;
13331;SDS011;6735;51.456;12.626;2023-06-10T12:55:29;7.37;;;6.20;;
13331;SDS011;6735;51.456;12.626;2023-06-10T12:57:55;7.67;;;6.50;;
13331;SDS011;6735;51.456;12.626;2023-06-10T13:00:22;7.33;;;6.63;;
13331;SDS011;6735;51.456;12.626;2023-06-10T13:02:50;6.72;;;6.00;;
13331;SDS011;6735;51.456;12.626;2023-06-10T13:05:17;6.45;;;5.90;;
13331;SDS011;6735;51.456;12.626;2023-06-10T13:07:43;6.60;;;5.57;;
13331;SDS011;6735;51.456;12.626;2023-06-10T13:10:09;6.53;;;5.93;;
13331;SDS011;6735;51.456;12.626;2023-06-10T13:12:35;9.03;;;5.93;;
13331;SDS011;6735;51.456;12.626;2023-06-10T13:15:01;6.53;;;6.03;;
13331;SDS011;6735;51.456;12.626;2023-06-10T13:17:27;6.70;;;6.00;;
13331;SDS011;6735;51.456;12.626;2023-06-10T13:19:52;8.63;;;5.77;;
13331;SDS011;6735;51.456;12.626;2023-06-10T13:22:18;14.53;;;6.07;;
13331;SDS011;6735;51.456;12.626;2023-06-10T13:24:45;6.03;;;5.50;;
13331;SDS011;6735;51.456;12.626;2023-06-10T13:27:11;6.60;;;5.20;;
13331;SDS011;6735;51.456;12.626;2023-06-10T13:29:39;6.33;;;4.83;;
13331;SDS011;6735;51.456;12.626;2023-06-10T13:32:04;8.93;;;4.77;;
13331;SDS011;6735;51.456;12.626;2023-06-10T13:34:31;6.43;;;4.97;;
13331;SDS011;6735;51.456;12.626;2023-06-10T13:36:56;7.37;;;4.80;;
13331;SDS011;6735;51.456;12.626;2023-06-10T13:39:21;5.13;;;4.63;;
13331;SDS011;6735;51.456;12.626;2023-06-10T13:41:47;5.33;;;4.83;;
13331;SDS011;6735;51.456;12.626;2023-06-10T13:44:12;10.57;;;4.60;;
13331;SDS011;6735;51.456;12.626;2023-06-10T13:46:38;5.23;;;4.70;;
13331;SDS011;6735;51.456;12.626;2023-06-10T13:49:03;6.57;;;4.60;;
13331;SDS011;6735;51.456;12.626;2023-06-10T13:51:29;5.80;;;4.50;;
13331;SDS011;6735;51.456;12.626;2023-06-10T13:53:54;5.23;;;4.43;;
13331;SDS011;6735;51.456;12.626;2023-06-10T13:56:20;8.67;;;5.30;;
13331;SDS011;6735;51.456;12.626;2023-06-10T13:58:45;6.10;;;5.00;;
13331;SDS011;6735;51.456;12.626;2023-06-10T14:01:11;5.70;;;4.90;;
13331;SDS011;6735;51.456;12.626;2023-06-10T14:03:36;5.57;;;5.03;;
13331;SDS011;6735;51.456;12.626;2023-06-10T14:06:02;7.87;;;6.07;;
13331;SDS011;6735;51.456;12.626;2023-06-10T14:08:28;4.90;;;4.60;;
13331;SDS011;6735;51.456;12.626;2023-06-10T14:10:53;5.10;;;4.70;;
13331;SDS011;6735;51.456;12.626;2023-06-10T14:13:19;6.33;;;4.77;;
13331;SDS011;6735;51.456;12.626;2023-06-10T14:15:44;8.93;;;4.53;;
13331;SDS011;6735;51.456;12.626;2023-06-10T14:18:10;10.20;;;4.70;;
13331;SDS011;6735;51.456;12.626;2023-06-10T14:20:36;4.90;;;4.40;;
13331;SDS011;6735;51.456;12.626;2023-06-10T14:23:01;5.00;;;3.90;;
13331;SDS011;6735;51.456;12.626;2023-06-10T14:25:27;4.70;;;4.30;;
13331;SDS011;6735;51.456;12.626;2023-06-10T14:27:52;5.93;;;4.53;;
13331;SDS011;6735;51.456;12.626;2023-06-10T14:30:18;4.60;;;4.00;;
13331;SDS011;6735;51.456;12.626;2023-06-10T14:32:43;5.20;;;4.70;;
13331;SDS011;6735;51.456;12.626;2023-06-10T14:35:09;5.40;;;4.43;;
13331;SDS011;6735;51.456;12.626;2023-06-10T14:37:35;8.67;;;4.80;;
13331;SDS011;6735;51.456;12.626;2023-06-10T14:40:01;5.43;;;4.97;;
13331;SDS011;6735;51.456;12.626;2023-06-10T14:42:28;5.40;;;4.87;;
13331;SDS011;6735;51.456;12.626;2023-06-10T14:44:53;5.90;;;5.27;;
13331;SDS011;6735;51.456;12.626;2023-06-10T14:47:19;6.47;;;4.97;;
13331;SDS011;6735;51.456;12.626;2023-06-10T14:49:44;6.93;;;5.87;;
13331;SDS011;6735;51.456;12.626;2023-06-10T14:52:10;6.13;;;5.53;;
13331;SDS011;6735;51.456;12.626;2023-06-10T14:54:35;5.90;;;5.30;;